createdAt,value
2023-04-24T00:01:22.956Z,3.03
2023-04-24T00:03:51.697Z,3.37
2023-04-24T00:06:20.116Z,2.00
2023-04-24T00:08:48.249Z,2.00
2023-04-24T00:11:16.454Z,4.83
2023-04-24T00:13:44.608Z,2.83
2023-04-24T00:16:14.178Z,2.37
2023-04-24T00:18:42.402Z,4.50
2023-04-24T00:21:10.643Z,3.33
2023-04-24T00:23:38.844Z,3.33
2023-04-24T00:26:07.107Z,5.90
2023-04-24T00:28:35.293Z,3.93
2023-04-24T00:31:03.488Z,6.40
2023-04-24T00:33:32.990Z,5.53
2023-04-24T00:36:01.147Z,4.77
2023-04-24T00:38:29.289Z,6.50
2023-04-24T00:40:57.442Z,6.93
2023-04-24T00:43:25.615Z,4.70
2023-04-24T00:45:53.896Z,9.60
2023-04-24T00:48:23.038Z,8.23
2023-04-24T00:50:52.534Z,7.90
2023-04-24T00:53:20.910Z,7.57
2023-04-24T00:55:49.232Z,6.93
2023-04-24T00:58:17.528Z,9.30
2023-04-24T01:00:47.154Z,7.87
2023-04-24T01:03:15.826Z,8.80
2023-04-24T01:05:44.300Z,7.00
2023-04-24T01:08:13.828Z,8.93
2023-04-24T01:10:43.453Z,8.47
2023-04-24T01:13:11.642Z,8.93
2023-04-24T01:15:39.847Z,9.33
2023-04-24T01:18:08.135Z,9.07
2023-04-24T01:20:37.662Z,8.17
2023-04-24T01:23:07.217Z,10.43
2023-04-24T01:25:35.553Z,10.23
2023-04-24T01:28:03.759Z,9.87
2023-04-24T01:30:33.788Z,9.80
2023-04-24T01:33:02.049Z,9.87
2023-04-24T01:35:30.338Z,6.83
2023-04-24T01:37:58.524Z,9.20
2023-04-24T01:40:28.104Z,9.70
2023-04-24T01:42:56.297Z,9.63
2023-04-24T01:45:24.439Z,8.03
2023-04-24T01:47:52.754Z,10.23
2023-04-24T01:50:21.063Z,9.03
2023-04-24T01:52:49.253Z,9.20
2023-04-24T01:55:17.441Z,12.37
2023-04-24T01:57:47.005Z,9.03
2023-04-24T02:00:15.425Z,9.80
2023-04-24T02:02:46.443Z,7.03
2023-04-24T02:05:16.305Z,9.20
2023-04-24T02:07:44.469Z,7.43
2023-04-24T02:10:13.090Z,8.67
2023-04-24T02:12:41.282Z,9.40
2023-04-24T02:15:11.290Z,8.13
2023-04-24T02:17:39.626Z,8.40
2023-04-24T02:20:08.612Z,9.77
2023-04-24T02:22:36.865Z,10.47
2023-04-24T02:25:06.032Z,13.07
2023-04-24T02:27:34.218Z,10.10
2023-04-24T02:30:02.529Z,9.67
2023-04-24T02:32:32.196Z,10.17
2023-04-24T02:35:00.436Z,11.23
2023-04-24T02:37:28.758Z,13.53
2023-04-24T02:39:56.916Z,9.83
2023-04-24T02:42:25.198Z,10.20
2023-04-24T02:44:53.362Z,9.63
2023-04-24T02:47:21.617Z,12.77
2023-04-24T02:49:51.155Z,10.93
2023-04-24T02:52:19.323Z,15.07
2023-04-24T02:54:47.488Z,10.43
2023-04-24T02:57:16.010Z,9.27
2023-04-24T02:59:44.418Z,9.90
2023-04-24T03:02:12.751Z,8.40
2023-04-24T03:04:43.836Z,10.30
2023-04-24T03:07:13.648Z,8.67
2023-04-24T03:09:42.009Z,9.30
2023-04-24T03:12:10.322Z,8.67
2023-04-24T03:14:38.524Z,8.27
2023-04-24T03:17:06.676Z,8.37
2023-04-24T03:19:34.854Z,9.73
2023-04-24T03:22:04.327Z,12.33
2023-04-24T03:24:33.968Z,8.03
2023-04-24T03:27:02.289Z,9.17
2023-04-24T03:29:30.534Z,8.93
2023-04-24T03:31:58.712Z,8.53
2023-04-24T03:34:26.921Z,9.27
2023-04-24T03:36:55.067Z,10.50
2023-04-24T03:39:23.249Z,11.17
2023-04-24T03:41:52.772Z,7.13
2023-04-24T03:44:20.911Z,9.57
2023-04-24T03:46:49.070Z,9.73
2023-04-24T03:49:17.222Z,11.13
2023-04-24T03:51:45.380Z,9.80
2023-04-24T03:54:14.700Z,8.63
2023-04-24T03:56:42.850Z,8.77
2023-04-24T03:59:12.355Z,13.63
2023-04-24T04:01:41.678Z,11.17
2023-04-24T04:04:11.752Z,9.83
2023-04-24T04:06:40.086Z,9.43
2023-04-24T04:09:08.251Z,8.57
2023-04-24T04:11:37.335Z,15.30
2023-04-24T04:14:06.247Z,9.67
2023-04-24T04:16:37.194Z,9.43
2023-04-24T04:19:06.406Z,10.07
2023-04-24T04:21:34.601Z,8.80
2023-04-24T04:24:02.785Z,11.33
2023-04-24T04:26:33.533Z,11.80
2023-04-24T04:29:02.242Z,10.27
2023-04-24T04:31:30.459Z,11.07
2023-04-24T04:34:00.041Z,11.97
2023-04-24T04:36:30.293Z,13.90
2023-04-24T04:39:00.260Z,12.40
2023-04-24T04:41:28.408Z,14.83
2023-04-24T04:43:59.480Z,10.27
2023-04-24T04:46:28.010Z,14.33
2023-04-24T04:48:57.588Z,10.37
2023-04-24T04:51:27.142Z,13.00
2023-04-24T04:53:55.305Z,18.20
2023-04-24T04:56:23.524Z,12.63
2023-04-24T04:58:51.728Z,11.50
2023-04-24T05:01:19.940Z,10.60
2023-04-24T05:03:48.286Z,11.27
2023-04-24T05:06:16.975Z,8.80
2023-04-24T05:08:46.991Z,11.07
2023-04-24T05:11:15.828Z,7.53
2023-04-24T05:13:43.971Z,8.23
2023-04-24T05:16:12.133Z,8.20
2023-04-24T05:18:40.301Z,8.07
2023-04-24T05:21:08.468Z,7.17
2023-04-24T05:23:36.634Z,7.73
2023-04-24T05:26:07.835Z,8.13
2023-04-24T05:28:37.611Z,6.20
2023-04-24T05:31:06.101Z,7.00
2023-04-24T05:33:34.311Z,12.00
2023-04-24T05:36:02.514Z,9.30
2023-04-24T05:38:30.675Z,7.70
2023-04-24T05:40:58.863Z,8.60
2023-04-24T05:43:28.350Z,6.70
2023-04-24T05:45:56.576Z,9.97
2023-04-24T05:48:24.839Z,7.37
2023-04-24T05:50:53.624Z,9.30
2023-04-24T05:53:21.916Z,5.90
2023-04-24T05:55:50.602Z,9.67
2023-04-24T05:58:18.777Z,7.60
2023-04-24T06:00:48.901Z,7.20
2023-04-24T06:03:17.573Z,7.70
2023-04-24T06:05:46.150Z,7.17
2023-04-24T06:08:14.576Z,8.23
2023-04-24T06:10:45.762Z,6.43
2023-04-24T06:13:14.147Z,5.83
2023-04-24T06:15:42.532Z,9.30
2023-04-24T06:18:13.827Z,7.70
2023-04-24T06:20:42.058Z,6.30
2023-04-24T06:23:10.276Z,5.90
2023-04-24T06:25:38.615Z,4.97
2023-04-24T06:28:06.897Z,7.53
2023-04-24T06:30:35.206Z,4.50
2023-04-24T06:33:16.831Z,4.53
2023-04-24T06:35:49.314Z,4.47
2023-04-24T06:38:17.913Z,8.00
2023-04-24T06:40:46.120Z,9.53
2023-04-24T06:43:15.797Z,5.23
2023-04-24T06:45:44.764Z,9.33
2023-04-24T06:48:13.084Z,7.03
2023-04-24T06:50:41.368Z,9.73
2023-04-24T06:53:12.040Z,6.17
2023-04-24T06:55:40.216Z,5.13
2023-04-24T06:58:08.932Z,7.27
2023-04-24T07:00:37.200Z,6.30
2023-04-24T07:03:06.379Z,4.47
2023-04-24T07:05:36.167Z,5.03
2023-04-24T07:08:04.428Z,4.40
2023-04-24T07:10:36.548Z,4.17
2023-04-24T07:13:04.708Z,8.97
2023-04-24T07:15:33.338Z,5.47
2023-04-24T07:18:04.068Z,4.33
2023-04-24T07:20:34.124Z,6.20
2023-04-24T07:23:02.304Z,10.77
2023-04-24T07:25:30.469Z,9.33
2023-04-24T07:27:59.961Z,4.77
2023-04-24T07:30:29.739Z,6.40
2023-04-24T07:32:57.898Z,6.10
2023-04-24T07:35:26.962Z,5.63
2023-04-24T07:37:55.490Z,6.23
2023-04-24T07:40:24.112Z,8.57
2023-04-24T07:42:52.286Z,6.57
2023-04-24T07:45:21.870Z,7.53
2023-04-24T07:47:50.110Z,7.33
2023-04-24T07:50:18.358Z,13.60
2023-04-24T07:52:46.537Z,9.93
2023-04-24T07:55:14.702Z,7.03
2023-04-24T07:57:42.884Z,6.73
2023-04-24T08:00:11.589Z,12.83
2023-04-24T08:02:41.326Z,8.07
2023-04-24T08:05:10.187Z,7.63
2023-04-24T08:07:38.602Z,9.30
2023-04-24T08:10:07.242Z,8.03
2023-04-24T08:12:35.466Z,8.83
2023-04-24T08:15:03.695Z,9.83
2023-04-24T08:17:34.697Z,10.20
2023-04-24T08:20:05.939Z,7.77
2023-04-24T08:22:34.130Z,10.63
2023-04-24T08:25:02.783Z,6.80
2023-04-24T08:27:31.068Z,8.63
2023-04-24T08:29:59.857Z,9.03
2023-04-24T08:32:29.824Z,8.10
2023-04-24T08:34:58.264Z,6.03
2023-04-24T08:37:28.762Z,5.80
2023-04-24T08:39:56.976Z,7.63
2023-04-24T08:42:25.362Z,9.13
2023-04-24T08:44:53.629Z,6.70
2023-04-24T08:47:22.846Z,5.97
2023-04-24T08:49:52.501Z,6.40
2023-04-24T08:52:21.097Z,8.83
2023-04-24T08:54:50.610Z,9.60
2023-04-24T08:57:19.153Z,11.77
2023-04-24T08:59:47.423Z,10.33
2023-04-24T09:02:16.230Z,12.60
2023-04-24T09:04:45.917Z,13.00
2023-04-24T09:07:14.966Z,12.67
2023-04-24T09:09:43.604Z,12.93
2023-04-24T09:12:14.072Z,14.07
2023-04-24T09:14:45.924Z,12.07
2023-04-24T09:17:14.435Z,12.97
2023-04-24T09:19:43.021Z,10.23
2023-04-24T09:22:12.213Z,13.47
2023-04-24T09:24:41.260Z,13.63
2023-04-24T09:27:11.251Z,15.27
2023-04-24T09:29:40.986Z,12.53
2023-04-24T09:32:22.574Z,14.60
2023-04-24T09:34:51.893Z,10.77
2023-04-24T09:37:30.852Z,12.83
2023-04-24T09:40:16.968Z,13.73
2023-04-24T09:42:48.665Z,10.80
2023-04-24T09:45:18.674Z,12.03
2023-04-24T09:47:47.155Z,10.73
2023-04-24T09:50:16.452Z,10.93
2023-04-24T09:52:46.317Z,9.57
2023-04-24T09:55:19.463Z,12.67
2023-04-24T09:57:52.195Z,9.43
2023-04-24T10:00:24.291Z,12.80
2023-04-24T10:02:53.995Z,10.23
2023-04-24T10:05:25.456Z,8.53
2023-04-24T10:07:53.974Z,10.17
2023-04-24T10:10:22.203Z,9.57
2023-04-24T10:12:50.456Z,7.67
2023-04-24T10:15:22.153Z,8.50
2023-04-24T10:17:53.344Z,8.13
2023-04-24T10:20:23.004Z,10.17
2023-04-24T10:22:54.765Z,6.97
2023-04-24T10:25:23.510Z,5.83
2023-04-24T10:27:52.147Z,10.80
2023-04-24T10:30:20.707Z,13.63
2023-04-24T10:32:48.954Z,10.83
2023-04-24T10:35:23.089Z,8.57
2023-04-24T10:37:53.580Z,7.37
2023-04-24T10:40:26.972Z,9.60
2023-04-24T10:42:58.093Z,10.10
2023-04-24T10:45:27.275Z,9.77
2023-04-24T10:47:56.398Z,8.73
2023-04-24T10:50:26.049Z,11.60
2023-04-24T10:52:55.630Z,8.97
2023-04-24T10:55:42.481Z,14.67
2023-04-24T10:58:10.723Z,8.90
2023-04-24T11:00:39.960Z,11.43
2023-04-24T11:03:08.652Z,10.13
2023-04-24T11:05:54.742Z,13.23
2023-04-24T11:08:26.991Z,10.10
2023-04-24T11:10:59.332Z,8.40
2023-04-24T11:13:28.141Z,12.53
2023-04-24T11:16:11.239Z,14.07
2023-04-24T11:18:46.072Z,12.60
2023-04-24T11:21:15.823Z,9.30
2023-04-24T11:23:45.063Z,12.60
2023-04-24T11:26:14.246Z,11.90
2023-04-24T11:28:52.093Z,10.57
2023-04-24T11:31:39.620Z,8.57
2023-04-24T11:34:11.965Z,8.60
2023-04-24T11:36:41.832Z,10.43
2023-04-24T11:39:10.930Z,11.17
2023-04-24T11:41:39.480Z,12.53
2023-04-24T11:44:09.389Z,8.67
2023-04-24T11:46:38.956Z,7.83
2023-04-24T11:49:07.881Z,8.73
2023-04-24T11:51:51.099Z,7.33
2023-04-24T11:54:22.917Z,10.33
2023-04-24T11:56:52.053Z,8.93
2023-04-24T11:59:20.343Z,11.10
2023-04-24T12:01:48.674Z,10.67
2023-04-24T12:04:17.719Z,8.80
2023-04-24T12:07:00.975Z,11.17
2023-04-24T12:09:30.582Z,10.27
2023-04-24T12:11:59.310Z,8.37
2023-04-24T12:14:27.495Z,10.13
2023-04-24T12:16:56.144Z,10.07
2023-04-24T12:19:24.729Z,9.97
2023-04-24T12:22:02.448Z,9.87
2023-04-24T12:24:32.180Z,12.13
2023-04-24T12:27:02.342Z,7.80
2023-04-24T12:29:30.530Z,9.30
2023-04-24T12:31:58.752Z,8.23
2023-04-24T12:34:27.964Z,10.23
2023-04-24T12:36:56.111Z,9.93
2023-04-24T12:39:27.571Z,6.57
2023-04-24T12:42:00.774Z,7.23
2023-04-24T12:44:32.624Z,11.13
2023-04-24T12:47:00.841Z,9.93
2023-04-24T12:49:29.109Z,7.97
2023-04-24T12:51:57.300Z,8.17
2023-04-24T12:54:25.536Z,8.80
2023-04-24T12:56:53.702Z,8.03
2023-04-24T12:59:23.182Z,6.23
2023-04-24T13:01:51.776Z,9.03
2023-04-24T13:04:20.117Z,7.23
2023-04-24T13:06:48.365Z,6.30
2023-04-24T13:09:16.519Z,7.50
2023-04-24T13:11:44.694Z,7.80
2023-04-24T13:14:12.863Z,5.20
2023-04-24T13:16:42.420Z,9.63
2023-04-24T13:19:10.635Z,8.57
2023-04-24T13:21:38.809Z,8.30
2023-04-24T13:24:08.729Z,9.30
2023-04-24T13:26:36.877Z,6.47
2023-04-24T13:29:05.271Z,7.53
2023-04-24T13:31:33.472Z,6.40
2023-04-24T13:34:03.035Z,7.93
2023-04-24T13:36:31.262Z,7.03
2023-04-24T13:38:59.445Z,8.90
2023-04-24T13:41:27.664Z,10.70
2023-04-24T13:43:55.808Z,8.47
2023-04-24T13:46:23.968Z,10.13
2023-04-24T13:48:52.242Z,6.83
2023-04-24T13:51:21.800Z,6.40
2023-04-24T13:53:49.961Z,7.37
2023-04-24T13:56:18.239Z,11.47
2023-04-24T13:58:46.562Z,7.37
2023-04-24T14:01:15.869Z,9.17
2023-04-24T14:03:44.981Z,9.83
2023-04-24T14:06:13.517Z,6.20
2023-04-24T14:08:43.026Z,8.60
2023-04-24T14:11:11.253Z,7.50
2023-04-24T14:13:39.588Z,7.57
2023-04-24T14:16:08.126Z,7.10
2023-04-24T14:18:37.123Z,6.20
2023-04-24T14:21:05.393Z,9.63
2023-04-24T14:23:33.630Z,7.07
2023-04-24T14:26:03.408Z,6.30
2023-04-24T14:28:31.572Z,6.97
2023-04-24T14:30:59.762Z,5.90
2023-04-24T14:33:27.973Z,6.03
2023-04-24T14:35:56.272Z,7.07
2023-04-24T14:38:24.758Z,6.87
2023-04-24T14:41:06.395Z,5.23
2023-04-24T14:43:37.543Z,6.80
2023-04-24T14:46:05.861Z,4.73
2023-04-24T14:48:34.055Z,5.17
2023-04-24T14:51:02.189Z,6.30
2023-04-24T14:53:30.683Z,6.90
2023-04-24T14:55:58.889Z,6.57
2023-04-24T14:58:27.075Z,4.40
2023-04-24T15:00:56.635Z,6.20
2023-04-24T15:03:25.077Z,5.23
2023-04-24T15:05:53.400Z,5.17
2023-04-24T15:08:21.659Z,5.13
2023-04-24T15:10:49.994Z,7.47
2023-04-24T15:13:18.262Z,6.07
2023-04-24T15:15:49.166Z,8.97
2023-04-24T15:18:18.665Z,8.07
2023-04-24T15:20:46.920Z,6.13
2023-04-24T15:23:15.465Z,7.10
2023-04-24T15:25:43.909Z,7.40
2023-04-24T15:28:12.306Z,6.23
2023-04-24T15:30:40.474Z,5.60
2023-04-24T15:33:08.712Z,7.47
2023-04-24T15:35:38.556Z,8.33
2023-04-24T15:38:06.747Z,6.80
2023-04-24T15:40:34.930Z,6.17
2023-04-24T15:43:03.090Z,4.93
2023-04-24T15:45:31.314Z,10.23
2023-04-24T15:47:59.612Z,5.67
2023-04-24T15:50:29.131Z,7.53
2023-04-24T15:52:58.636Z,8.10
2023-04-24T15:55:26.808Z,4.63
2023-04-24T15:57:55.005Z,6.13
2023-04-24T16:00:23.216Z,6.50
2023-04-24T16:02:51.705Z,6.17
2023-04-24T16:05:22.711Z,6.83
2023-04-24T16:07:51.594Z,6.40
2023-04-24T16:10:21.266Z,6.10
2023-04-24T16:12:50.353Z,5.80
2023-04-24T16:15:18.608Z,8.90
2023-04-24T16:17:46.910Z,5.87
2023-04-24T16:20:15.438Z,5.77
2023-04-24T16:22:43.611Z,6.97
2023-04-24T16:25:12.055Z,6.20
2023-04-24T16:27:41.558Z,5.87
2023-04-24T16:30:10.480Z,6.30
2023-04-24T16:32:38.687Z,8.10
2023-04-24T16:35:07.174Z,4.70
2023-04-24T16:37:35.490Z,6.93
2023-04-24T16:40:05.033Z,6.97
2023-04-24T16:42:33.194Z,8.03
2023-04-24T16:45:02.886Z,6.03
2023-04-24T16:47:31.247Z,7.77
2023-04-24T16:49:59.463Z,5.43
2023-04-24T16:52:27.843Z,7.77
2023-04-24T16:54:56.052Z,5.63
2023-04-24T16:57:24.279Z,5.97
2023-04-24T16:59:52.454Z,5.63
2023-04-24T17:02:22.004Z,9.30
2023-04-24T17:04:50.221Z,7.47
2023-04-24T17:07:18.614Z,7.10
2023-04-24T17:09:46.846Z,8.13
2023-04-24T17:12:15.035Z,6.97
2023-04-24T17:14:43.159Z,6.60
2023-04-24T17:17:11.699Z,6.53
2023-04-24T17:19:41.219Z,8.60
2023-04-24T17:22:09.397Z,7.23
2023-04-24T17:24:37.795Z,10.77
2023-04-24T17:27:14.383Z,7.53
2023-04-24T17:29:43.056Z,9.60
2023-04-24T17:32:11.322Z,10.33
2023-04-24T17:34:41.037Z,6.30
2023-04-24T17:37:09.227Z,8.70
2023-04-24T17:39:37.429Z,9.57
2023-04-24T17:42:05.893Z,13.97
2023-04-24T17:44:34.060Z,10.83
2023-04-24T17:47:03.886Z,9.07
2023-04-24T17:49:32.725Z,13.57
2023-04-24T17:52:02.210Z,10.93
2023-04-24T17:54:30.371Z,13.50
2023-04-24T17:56:58.645Z,17.07
2023-04-24T17:59:26.977Z,9.63
2023-04-24T18:01:55.264Z,15.23
2023-04-24T18:04:23.630Z,13.87
2023-04-24T18:06:51.847Z,15.53
2023-04-24T18:09:21.692Z,11.20
2023-04-24T18:11:50.159Z,14.63
2023-04-24T18:14:18.357Z,11.27
2023-04-24T18:16:46.538Z,13.17
2023-04-24T18:19:14.734Z,10.27
2023-04-24T18:21:42.889Z,12.90
2023-04-24T18:24:11.112Z,13.90
2023-04-24T18:26:40.609Z,11.63
2023-04-24T18:29:08.761Z,14.20
2023-04-24T18:31:37.031Z,12.17
2023-04-24T18:34:05.246Z,11.30
2023-04-24T18:36:33.621Z,14.57
2023-04-24T18:39:01.828Z,9.50
2023-04-24T18:41:30.005Z,7.23
2023-04-24T18:43:59.567Z,6.27
2023-04-24T18:46:27.789Z,9.67
2023-04-24T18:48:56.324Z,6.60
2023-04-24T18:51:24.528Z,4.40
2023-04-24T18:53:53.094Z,8.50
2023-04-24T18:56:21.272Z,5.27
2023-04-24T18:58:49.858Z,5.03
2023-04-24T19:01:19.728Z,7.17
2023-04-24T19:03:48.120Z,5.10
2023-04-24T19:06:16.316Z,4.43
2023-04-24T19:08:44.886Z,4.50
2023-04-24T19:11:13.306Z,4.83
2023-04-24T19:13:41.846Z,5.00
2023-04-24T19:16:10.033Z,5.07
2023-04-24T19:18:39.547Z,6.30
2023-04-24T19:21:07.746Z,4.57
2023-04-24T19:23:39.543Z,6.03
2023-04-24T19:26:07.760Z,5.67
2023-04-24T19:28:37.252Z,5.27
2023-04-24T19:31:07.185Z,6.93
2023-04-24T19:33:35.455Z,5.80
2023-04-24T19:36:05.618Z,4.93
2023-04-24T19:38:33.802Z,9.47
2023-04-24T19:41:01.992Z,7.30
2023-04-24T19:43:30.211Z,8.23
2023-04-24T19:45:58.614Z,14.83
2023-04-24T19:48:30.888Z,5.27
2023-04-24T19:50:59.096Z,4.70
2023-04-24T19:53:28.830Z,6.00
2023-04-24T19:55:57.423Z,3.87
2023-04-24T19:58:25.605Z,7.17
2023-04-24T20:00:53.778Z,6.17
2023-04-24T20:03:32.922Z,6.00
2023-04-24T20:06:02.082Z,6.20
2023-04-24T20:08:31.667Z,4.53
2023-04-24T20:11:00.754Z,5.30
2023-04-24T20:13:31.557Z,6.43
2023-04-24T20:15:59.918Z,6.10
2023-04-24T20:18:28.223Z,7.73
2023-04-24T20:20:59.506Z,8.00
2023-04-24T20:23:27.813Z,8.80
2023-04-24T20:25:58.810Z,11.70
2023-04-24T20:28:27.154Z,7.90
2023-04-24T20:30:55.384Z,7.83
2023-04-24T20:33:23.686Z,7.90
2023-04-24T20:35:52.357Z,7.13
2023-04-24T20:38:22.291Z,8.57
2023-04-24T20:40:57.697Z,6.70
2023-04-24T20:43:29.036Z,7.80
2023-04-24T20:45:58.435Z,6.03
2023-04-24T20:48:27.287Z,8.27
2023-04-24T20:50:55.883Z,9.53
2023-04-24T20:53:24.182Z,6.23
2023-04-24T20:55:52.389Z,7.20
2023-04-24T20:58:22.011Z,5.57
2023-04-24T21:00:52.629Z,6.70
2023-04-24T21:03:21.217Z,7.10
2023-04-24T21:05:49.497Z,6.40
2023-04-24T21:08:17.664Z,9.87
2023-04-24T21:10:45.990Z,8.43
2023-04-24T21:13:14.131Z,12.70
2023-04-24T21:15:42.286Z,11.23
2023-04-24T21:18:11.891Z,5.93
2023-04-24T21:20:40.320Z,5.27
2023-04-24T21:23:08.532Z,9.53
2023-04-24T21:25:36.724Z,7.17
2023-04-24T21:28:04.970Z,10.43
2023-04-24T21:30:33.218Z,10.00
2023-04-24T21:33:01.523Z,9.47
2023-04-24T21:35:31.127Z,8.73
2023-04-24T21:37:59.295Z,9.27
2023-04-24T21:40:27.452Z,8.17
2023-04-24T21:42:55.726Z,6.97
2023-04-24T21:45:24.222Z,6.43
2023-04-24T21:47:52.451Z,7.70
2023-04-24T21:50:20.691Z,7.90
2023-04-24T21:52:50.217Z,5.47
2023-04-24T21:55:18.497Z,11.03
2023-04-24T21:57:46.751Z,10.90
2023-04-24T22:00:15.083Z,7.07
2023-04-24T22:02:43.742Z,6.50
2023-04-24T22:05:15.623Z,7.77
2023-04-24T22:07:46.690Z,5.57
2023-04-24T22:10:18.227Z,6.80
2023-04-24T22:12:48.808Z,10.07
2023-04-24T22:15:16.999Z,7.60
2023-04-24T22:17:49.686Z,7.73
2023-04-24T22:20:17.979Z,5.80
2023-04-24T22:22:46.267Z,6.40
2023-04-24T22:25:15.145Z,6.97
2023-04-24T22:27:45.739Z,10.50
2023-04-24T22:30:14.361Z,6.93
2023-04-24T22:32:42.653Z,8.07
2023-04-24T22:35:13.700Z,8.13
2023-04-24T22:37:41.848Z,8.43
2023-04-24T22:40:10.462Z,5.70
2023-04-24T22:42:38.664Z,7.67
2023-04-24T22:45:11.515Z,7.10
2023-04-24T22:47:39.782Z,8.93
2023-04-24T22:50:08.844Z,11.13
2023-04-24T22:52:37.006Z,6.87
2023-04-24T22:55:05.640Z,8.67
2023-04-24T22:57:33.840Z,9.60
2023-04-24T23:00:02.051Z,9.87
2023-04-24T23:02:32.276Z,7.57
2023-04-24T23:05:00.504Z,9.23
2023-04-24T23:07:28.978Z,11.03
2023-04-24T23:09:57.148Z,9.13
2023-04-24T23:12:25.329Z,8.53
2023-04-24T23:14:53.481Z,8.07
2023-04-24T23:17:21.711Z,9.03
2023-04-24T23:19:53.872Z,8.03
2023-04-24T23:22:22.066Z,7.43
2023-04-24T23:24:50.589Z,9.67
2023-04-24T23:27:18.744Z,9.77
2023-04-24T23:29:46.904Z,12.57
2023-04-24T23:32:15.217Z,10.57
2023-04-24T23:34:43.462Z,8.40
2023-04-24T23:37:13.162Z,9.53
2023-04-24T23:39:41.360Z,9.27
2023-04-24T23:42:09.530Z,10.27
2023-04-24T23:44:37.898Z,6.87
2023-04-24T23:47:06.044Z,8.53
2023-04-24T23:49:34.259Z,7.60
2023-04-24T23:52:03.124Z,10.37
2023-04-24T23:54:32.628Z,9.20
2023-04-24T23:57:00.773Z,11.87
2023-04-24T23:59:30.750Z,19.33
